Detroit, Michigan
Traffic Map
Current Weather Conditions
Detroit, Michigan
Few Clouds
Few Clouds
18°
Feels Like: 18°
Wind Chill: 18° Ceiling: Unl
Heat Index: 18° Visibility: 15mi
Dew Point: Wind: 9mph
Humidity: 56% Direction: 230° (SW)
Pressure: 30.35in Gusts: 0mph
Raw Report DataCYQG 231600Z 23008KT 15SM FEW025 18/09 A3035 RMK CF1 TR CF SLP280
Traffic Incident Summary
Active as of:
Severity:
Category:
InformationThere was an issue retrieving the traffic information for this location. Please try a different location or try again shortly.
Advertisements
Track Severe Weather on mobile